Time;durP1;ratioP1;P1;durP2;ratioP2;P2;SDS_P1;SDS_P2;PMS_P1;PMS_P2;Temp;Humidity;BMP_temperature;BMP_pressure;BME280_temperature;BME280_humidity;BME280_pressure;Samples;Min_cycle;Max_cycle;Signal;HPM_P1;HPM_P2
2023/09/12 00:01:27;;;;;;;14.97;13.63;;;;;;;12.92;100.00;95458.00;7413427;19;20403;-95
2023/09/12 00:04:16;;;;;;;15.27;13.67;;;;;;;14.07;100.00;95643.25;7426589;19;20408;-94
2023/09/12 00:07:05;;;;;;;16.60;15.00;;;;;;;13.28;100.00;95495.56;7417369;19;20397;-95
2023/09/12 00:09:32;;;;;;;15.00;13.80;;;;;;;14.04;100.00;95623.47;7417836;19;20384;-94
2023/09/12 00:12:07;;;;;;;16.60;14.97;;;;;;;14.27;100.00;95641.91;7418508;19;20376;-94
2023/09/12 00:14:37;;;;;;;16.30;14.90;;;;;;;14.41;100.00;95670.50;7415921;19;20416;-94
2023/09/12 00:17:20;;;;;;;14.50;13.00;;;;;;;12.95;100.00;95489.13;7415916;19;20376;-95
2023/09/12 00:20:17;;;;;;;14.83;13.43;;;;;;;14.85;100.00;95822.25;7417602;19;20399;-94
2023/09/12 00:23:10;;;;;;;14.77;13.00;;;;;;;12.59;100.00;95448.13;7412565;19;20423;-95
2023/09/12 00:29:28;;;;;;;24.00;15.50;;;;;;;14.49;100.00;95720.03;7422399;19;20396;-94
2023/09/12 00:32:29;;;;;;;14.03;12.73;;;;;;;13.46;100.00;95572.75;7408463;19;20464;-94
2023/09/12 00:35:29;;;;;;;15.97;13.10;;;;;;;15.05;100.00;95804.94;7410760;19;20368;-95
2023/09/12 00:38:23;;;;;;;14.23;13.00;;;;;;;14.24;100.00;95697.72;7414299;19;20393;-96
2023/09/12 00:41:03;;;;;;;16.67;14.13;;;;;;;13.64;100.00;95653.41;7413989;19;20410;-95
2023/09/12 00:43:38;;;;;;;15.50;13.90;;;;;;;12.92;100.00;95608.47;7406474;19;20569;-94
2023/09/12 00:46:18;;;;;;;14.03;12.87;;;;;;;13.02;100.00;95626.41;7416621;19;20398;-95
2023/09/12 00:48:48;;;;;;;14.20;13.00;;;;;;;12.91;100.00;95561.84;7416742;19;20486;-93
2023/09/12 00:51:31;;;;;;;17.33;15.73;;;;;;;13.57;100.00;95621.44;7418522;19;20385;-94
2023/09/12 00:53:59;;;;;;;13.90;12.60;;;;;;;12.90;100.00;95526.56;7415273;19;20420;-94
2023/09/12 00:56:27;;;;;;;15.27;13.57;;;;;;;13.18;100.00;95595.19;7418863;19;20376;-94
2023/09/12 00:59:06;;;;;;;;;;;;;;;;;;;;;
2023/09/12 01:02:03;;;;;;;15.07;13.63;;;;;;;14.47;100.00;95789.56;7420534;19;20385;-93
2023/09/12 01:04:48;;;;;;;15.50;13.90;;;;;;;12.46;100.00;95478.66;7415102;19;20428;-95
2023/09/12 01:07:42;;;;;;;14.73;13.47;;;;;;;13.49;100.00;95595.94;7418329;19;20431;-94
2023/09/12 01:10:10;;;;;;;15.60;14.13;;;;;;;13.33;100.00;95577.53;7416688;19;20377;-94
2023/09/12 01:12:44;;;;;;;16.10;14.50;;;;;;;13.56;100.00;95627.88;7420639;19;20408;-94
2023/09/12 01:15:41;;;;;;;15.03;12.70;;;;;;;12.37;100.00;95492.16;7420364;19;20373;-92
2023/09/12 01:18:55;;;;;;;15.03;13.50;;;;;;;13.03;100.00;95533.19;7424601;19;20399;-94
2023/09/12 01:22:17;;;;;;;14.87;13.60;;;;;;;14.38;100.00;95785.63;7423007;19;20460;-96
2023/09/12 01:25:22;;;;;;;15.63;12.40;;;;;;;14.30;100.00;95771.47;7425470;19;20414;-94
2023/09/12 01:31:43;;;;;;;15.27;13.80;;;;;;;14.37;100.00;95776.09;7430532;19;20453;-94
2023/09/12 01:40:55;;;;;;;15.17;13.73;;;;;;;14.07;100.00;95771.59;7426556;19;20386;-96
2023/09/12 01:43:55;;;;;;;15.20;13.80;;;;;;;14.02;100.00;95771.94;7419938;19;20463;-95
2023/09/12 01:47:20;;;;;;;14.17;11.83;;;;;;;14.25;100.00;95771.78;7407782;19;20413;-95
2023/09/12 01:50:24;;;;;;;14.57;13.30;;;;;;;12.86;100.00;95568.22;7412130;19;20385;-93
2023/09/12 01:53:06;;;;;;;13.93;12.70;;;;;;;13.26;100.00;95631.31;7415711;19;20424;-93
2023/09/12 01:55:59;;;;;;;13.40;12.20;;;;;;;12.38;100.00;95573.22;7415357;19;20384;-92
2023/09/12 01:58:39;;;;;;;15.93;14.53;;;;;;;12.71;100.00;95646.84;7415394;19;20429;-92
2023/09/12 02:01:26;;;;;;;16.20;14.57;;;;;;;12.08;100.00;95503.47;7414831;19;20393;-92
2023/09/12 02:03:54;;;;;;;14.27;13.17;;;;;;;12.72;100.00;95629.03;7415506;19;20428;-93
2023/09/12 02:06:43;;;;;;;14.90;11.70;;;;;;;12.66;100.00;95588.00;7414116;19;20389;-93
2023/09/12 02:09:18;;;;;;;13.43;11.23;;;;;;;13.01;100.00;95646.13;7412532;19;20373;-92
2023/09/12 02:11:54;;;;;;;14.17;12.87;;;;;;;12.96;100.00;95641.91;7410147;19;20399;-93
2023/09/12 02:14:29;;;;;;;17.30;13.53;;;;;;;13.78;100.00;95780.34;7410421;19;20392;-93
2023/09/12 02:17:30;;;;;;;13.80;12.47;;;;;;;12.38;100.00;95593.66;7410809;19;20384;-94
2023/09/12 02:20:19;;;;;;;13.77;12.47;;;;;;;12.65;100.00;95605.81;7413211;19;20401;-93
2023/09/12 02:23:39;;;;;;;13.50;12.20;;;;;;;13.36;100.00;95760.03;7410172;19;20420;-92
2023/09/12 02:26:22;;;;;;;13.57;12.37;;;;;;;11.61;100.00;95554.09;7407081;19;20916;-93
2023/09/12 02:29:22;;;;;;;14.90;13.43;;;;;;;13.34;100.00;95758.84;7407827;19;20377;-93
2023/09/12 02:32:14;;;;;;;13.20;12.10;;;;;;;11.45;100.00;95451.75;7406905;19;20404;-93
2023/09/12 02:35:01;;;;;;;15.33;13.80;;;;;;;11.70;100.00;95454.03;7409366;19;20440;-92
2023/09/12 02:37:32;;;;;;;16.23;14.67;;;;;;;12.82;100.00;95617.81;7407311;19;20384;-93
2023/09/12 02:40:14;;;;;;;16.20;13.67;;;;;;;11.78;100.00;95456.44;7406251;19;20566;-94
2023/09/12 02:42:55;;;;;;;14.73;13.40;;;;;;;12.67;100.00;95613.41;7405784;19;20420;-93
2023/09/12 02:45:33;;;;;;;13.80;12.23;;;;;;;13.04;100.00;95640.09;7407553;19;20448;-93
2023/09/12 02:48:09;;;;;;;14.90;13.60;;;;;;;11.74;100.00;95452.97;7412527;19;20412;-93
2023/09/12 02:50:46;;;;;;;14.70;13.03;;;;;;;12.98;100.00;95663.53;7412491;19;20381;-93
2023/09/12 02:53:37;;;;;;;15.87;13.40;;;;;;;12.72;100.00;95653.69;7407727;19;20433;-93
2023/09/12 02:56:04;;;;;;;14.47;13.07;;;;;;;11.94;100.00;95546.41;7409027;19;20388;-93
2023/09/12 02:58:32;;;;;;;15.03;13.73;;;;;;;11.91;100.00;95620.53;7406304;19;20385;-92
2023/09/12 03:01:00;;;;;;;14.03;12.57;;;;;;;12.37;100.00;95637.19;7407240;19;20396;-93
2023/09/12 03:03:27;;;;;;;15.00;13.43;;;;;;;12.42;100.00;95635.03;7404857;19;20429;-94
2023/09/12 03:06:19;;;;;;;14.93;12.33;;;;;;;13.53;100.00;95787.97;7405153;19;20369;-91
2023/09/12 03:09:32;;;;;;;;;;;;;;;;;;;;;
2023/09/12 03:12:39;;;;;;;13.00;11.70;;;;;;;12.20;100.00;95608.53;7406246;19;20372;-93
2023/09/12 03:15:16;;;;;;;13.00;11.80;;;;;;;13.47;100.00;95771.56;7405050;19;20388;-93
2023/09/12 03:18:11;;;;;;;12.50;11.40;;;;;;;12.29;100.00;95651.47;7404158;19;20452;-93
2023/09/12 03:21:02;;;;;;;14.10;12.70;;;;;;;11.73;100.00;95601.63;7405344;19;20911;-93
2023/09/12 03:23:51;;;;;;;13.43;12.23;;;;;;;10.73;100.00;95441.00;7404383;19;20439;-93
2023/09/12 03:26:53;;;;;;;12.07;11.00;;;;;;;11.21;100.00;95450.19;7408024;19;20369;-94
2023/09/12 03:29:23;;;;;;;12.43;11.33;;;;;;;13.03;100.00;95764.06;7407125;19;20428;-93
2023/09/12 03:32:02;;;;;;;13.87;12.53;;;;;;;11.12;100.00;95438.31;7410711;19;20384;-93
2023/09/12 03:34:36;;;;;;;12.63;11.73;;;;;;;12.93;100.00;95716.13;7409207;19;20408;-93
2023/09/12 03:37:17;;;;;;;14.10;12.80;;;;;;;11.75;100.00;95527.88;7408497;19;20404;-93
2023/09/12 03:40:23;;;;;;;13.67;12.40;;;;;;;13.43;100.00;95784.03;7419175;19;20424;-93
2023/09/12 03:43:22;;;;;;;13.83;12.60;;;;;;;12.53;100.00;95615.84;7408264;19;20456;-93
2023/09/12 03:46:29;;;;;;;14.77;13.37;;;;;;;13.51;100.00;95792.88;7406761;19;20385;-93
2023/09/12 03:49:22;;;;;;;13.40;12.10;;;;;;;13.54;100.00;95779.63;7410591;19;20395;-93
2023/09/12 04:04:01;;;;;;;15.03;12.90;;;;;;;11.50;100.00;95567.19;7414999;19;20409;-92
2023/09/12 04:07:01;;;;;;;13.33;12.10;;;;;;;12.98;100.00;95780.28;7420451;19;20357;-93
2023/09/12 04:10:11;;;;;;;13.70;12.50;;;;;;;13.04;100.00;95778.09;7412314;19;20416;-95
2023/09/12 04:12:43;;;;;;;14.30;12.80;;;;;;;11.94;100.00;95625.88;7409852;19;20425;-93
2023/09/12 04:15:28;;;;;;;13.10;11.90;;;;;;;11.98;100.00;95626.69;7412054;19;20388;-93
2023/09/12 04:18:09;;;;;;;13.07;11.87;;;;;;;10.74;100.00;95434.59;7412856;19;20412;-94
2023/09/12 04:20:48;;;;;;;13.83;12.53;;;;;;;12.69;100.00;95762.38;7417881;19;20392;-93
2023/09/12 04:23:21;;;;;;;14.67;13.30;;;;;;;11.56;100.00;95621.34;7419409;19;20412;-94
2023/09/12 04:26:10;;;;;;;14.07;12.57;;;;;;;11.25;100.00;95554.22;7420164;19;20384;-93
2023/09/12 04:28:40;;;;;;;12.97;11.63;;;;;;;10.67;100.00;95442.38;7420739;19;20385;-94
2023/09/12 04:31:22;;;;;;;15.63;14.20;;;;;;;11.78;100.00;95598.69;7420665;19;20440;-94
2023/09/12 04:34:02;;;;;;;15.50;12.23;;;;;;;12.70;100.00;95693.06;7413089;19;20432;-94
2023/09/12 04:36:49;;;;;;;12.73;11.20;;;;;;;10.49;100.00;95449.19;7419508;19;20389;-93
2023/09/12 04:40:25;;;;;;;13.13;12.03;;;;;;;11.95;100.00;95749.28;7418197;19;20385;-94
2023/09/12 04:42:57;;;;;;;13.97;12.77;;;;;;;10.49;100.00;95484.31;7412898;19;20499;-94
2023/09/12 04:45:48;;;;;;;13.50;12.20;;;;;;;11.68;100.00;95642.41;7415746;19;20372;-93
2023/09/12 04:48:49;;;;;;;16.43;13.17;;;;;;;12.64;100.00;95771.38;7415325;19;20369;-94
2023/09/12 05:15:46;;;;;;;16.53;12.03;;;;;;;10.96;100.00;95594.47;7417964;19;20817;-94
2023/09/12 05:18:21;;;;;;;16.83;12.03;;;;;;;11.87;100.00;95694.59;7415766;19;20385;-94
2023/09/12 05:20:54;;;;;;;14.97;13.43;;;;;;;12.54;100.00;95779.91;7414953;19;20365;-94
2023/09/12 05:23:43;;;;;;;;;;;;;;;;;;;;;
2023/09/12 05:27:05;;;;;;;25.20;13.57;;;;;;;10.86;100.00;95523.59;7417328;19;20392;-93
2023/09/12 05:30:38;;;;;;;15.07;12.70;;;;;;;12.81;100.00;95804.63;7416084;19;20421;-93
2023/09/12 05:33:50;;;;;;;17.37;12.47;;;;;;;11.88;100.00;95698.03;7411080;19;20445;-93
2023/09/12 05:37:02;;;;;;;17.10;12.43;;;;;;;10.52;100.00;95470.41;7415939;19;20392;-94
2023/09/12 05:40:25;;;;;;;13.10;12.00;;;;;;;12.22;100.00;95715.69;7414767;19;20356;-93
2023/09/12 05:52:08;;;;;;;;;;;;;;;;;;;;;
2023/09/12 05:55:15;;;;;;;14.70;13.30;;;;;;;12.38;100.00;95625.47;7411184;19;20388;-94
2023/09/12 05:58:24;;;;;;;15.07;13.80;;;;;;;13.53;100.00;95801.25;7416899;19;20389;-95
2023/09/12 06:05:10;;;;;;;16.60;15.00;;;;;;;11.57;100.00;95511.69;7414293;19;20442;-94
2023/09/12 06:11:43;;;;;;;15.33;13.87;;;;;;;12.23;100.00;95629.00;7416639;19;20388;-94
2023/09/12 06:15:17;;;;;;;16.63;15.23;;;;;;;11.45;100.00;95483.50;7415479;19;20424;-95
2023/09/12 06:18:43;;;;;;;18.73;16.83;;;;;;;13.95;100.00;95817.00;7415941;19;20429;-93
2023/09/12 06:21:31;;;;;;;16.83;14.47;;;;;;;12.07;100.00;95517.84;7414753;19;20433;-94
2023/09/12 06:24:32;;;;;;;18.97;15.60;;;;;;;14.38;100.00;95828.94;7413165;19;20408;-93
2023/09/12 06:27:31;;;;;;;17.40;15.67;;;;;;;13.27;100.00;95645.38;7417732;19;20413;-94
2023/09/12 06:30:47;;;;;;;23.00;16.70;;;;;;;14.48;100.00;95793.75;7416652;19;20376;-95
2023/09/12 06:33:36;;;;;;;19.07;17.20;;;;;;;14.92;100.00;95818.88;7416158;19;20432;-94
2023/09/12 06:36:56;;;;;;;;;;;;;;;;;;;;;
2023/09/12 06:42:47;;;;;;;19.70;17.90;;;;;;;15.60;100.00;95836.19;7413989;19;20453;-94
2023/09/12 06:46:00;;;;;;;19.90;18.03;;;;;;;14.90;100.00;95675.50;7414756;19;20373;-93
2023/09/12 06:49:03;;;;;;;20.23;18.33;;;;;;;16.26;100.00;95820.94;7414958;19;20400;-94
2023/09/12 06:52:32;;;;;;;21.23;19.00;;;;;;;14.38;100.00;95515.09;7417952;19;20471;-95
2023/09/12 06:55:32;;;;;;;19.33;17.03;;;;;;;15.99;100.00;95707.69;7416048;19;20381;-93
2023/09/12 06:58:26;;;;;;;18.40;16.70;;;;;;;15.94;100.00;95648.25;7415925;19;20393;-95
2023/09/12 07:01:21;;;;;;;20.67;18.07;;;;;;;16.65;100.00;95710.88;7417067;19;20384;-93
2023/09/12 07:04:16;;;;;;;19.03;17.30;;;;;;;15.76;100.00;95546.16;7415409;19;20412;-93
2023/09/12 07:07:09;;;;;;;19.50;17.70;;;;;;;17.70;100.00;95851.00;7417178;19;20389;-94
2023/09/12 07:10:07;;;;;;;18.07;16.47;;;;;;;16.61;100.00;95689.53;7416374;19;20389;-94
2023/09/12 16:58:20;;;;;;;10.47;8.57;;;;;;;24.30;100.00;95664.41;7431940;19;20396;-92
2023/09/12 17:01:01;;;;;;;10.30;9.47;;;;;;;22.06;100.00;95361.19;7433056;19;20400;-91
2023/09/12 17:04:18;;;;;;;;;;;;;;;;;;;;;
2023/09/12 17:06:59;;;;;;;9.20;7.97;;;;;;;22.67;100.00;95495.03;7431133;19;20372;-93
2023/09/12 17:09:43;;;;;;;10.40;8.00;;;;;;;22.93;100.00;95534.44;7428855;19;20377;-93
2023/09/12 17:12:43;;;;;;;9.10;8.20;;;;;;;23.16;100.00;95560.41;7428810;19;20444;-93
2023/09/12 17:15:40;;;;;;;9.33;7.50;;;;;;;21.64;100.00;95379.91;7431214;19;20361;-93
2023/09/12 17:18:20;;;;;;;9.10;8.30;;;;;;;22.01;100.00;95435.13;7432721;19;20400;-93
2023/09/12 17:21:21;;;;;;;10.17;8.37;;;;;;;22.55;100.00;95501.88;7431460;19;20376;-92
2023/09/12 17:24:24;;;;;;;10.23;8.10;;;;;;;23.88;100.00;95686.06;7431823;19;20439;-94
2023/09/12 17:27:29;;;;;;;8.73;7.70;;;;;;;22.18;100.00;95483.63;7435012;19;20420;-92
2023/09/12 17:30:10;;;;;;;10.67;8.70;;;;;;;22.43;100.00;95594.94;7435824;19;20404;-92
2023/09/12 17:32:52;;;;;;;12.10;8.87;;;;;;;21.49;100.00;95494.38;7426070;19;20465;-95
2023/09/12 17:35:55;;;;;;;14.00;8.40;;;;;;;21.36;100.00;95477.34;7432616;19;20393;-95
2023/09/12 17:38:40;;;;;;;17.27;9.70;;;;;;;22.27;100.00;95650.75;7437228;19;20377;-92
2023/09/12 17:41:26;;;;;;;11.60;8.47;;;;;;;20.30;100.00;95365.44;7436169;19;20402;-95
2023/09/12 18:02:00;;;;;;;12.57;11.37;;;;;;;19.83;100.00;95357.47;7434449;19;20404;-94
2023/09/12 18:05:00;;;;;;;16.67;11.60;;;;;;;21.93;100.00;95665.28;7431439;19;20392;-95
2023/09/12 18:13:48;;;;;;;12.23;10.30;;;;;;;21.47;100.00;95687.72;7432827;19;20420;-94
2023/09/12 18:17:19;;;;;;;12.50;11.37;;;;;;;20.13;100.00;95503.41;7432728;19;20437;-93
2023/09/12 18:23:44;;;;;;;16.83;11.10;;;;;;;21.36;100.00;95690.59;7432525;19;20436;-94
2023/09/12 20:04:09;;;;;;;;;;;;;;;;;;;;;
2023/09/12 20:07:05;;;;;;;40.13;17.00;;;;;;;18.31;100.00;95548.44;7420033;19;20370;-93
2023/09/12 20:13:18;;;;;;;33.20;15.33;;;;;;;17.47;100.00;95419.53;7419512;19;20483;-94
2023/09/12 20:16:26;;;;;;;40.77;14.70;;;;;;;19.60;100.00;95744.41;7418596;19;20403;-95
2023/09/12 20:19:07;;;;;;;37.20;14.43;;;;;;;19.02;100.00;95654.97;7421001;19;20388;-92
2023/09/12 20:21:42;;;;;;;22.57;14.40;;;;;;;17.58;100.00;95506.50;7417143;19;20380;-92
2023/09/12 20:24:46;;;;;;;36.97;15.67;;;;;;;16.55;100.00;95362.78;7415444;19;20424;-93
2023/09/12 20:27:36;;;;;;;36.00;14.70;;;;;;;18.69;100.00;95712.63;7420237;19;20396;-93
2023/09/12 20:30:31;;;;;;;27.23;15.10;;;;;;;17.38;100.00;95508.94;7417640;19;20775;-93
2023/09/12 20:33:20;;;;;;;37.10;16.10;;;;;;;16.73;100.00;95397.44;7417628;19;20443;-93
2023/09/12 20:36:18;;;;;;;20.73;15.47;;;;;;;18.84;100.00;95716.75;7419162;19;20369;-93
2023/09/12 20:39:32;;;;;;;19.97;14.70;;;;;;;17.89;100.00;95544.16;7418703;19;21009;-91
2023/09/12 20:42:09;;;;;;;22.57;14.47;;;;;;;17.85;100.00;95514.00;7417483;19;20380;-93
2023/09/12 20:48:08;;;;;;;27.90;15.97;;;;;;;17.11;100.00;95443.81;7417890;19;20777;-93
2023/09/12 20:50:49;;;;;;;27.70;14.80;;;;;;;18.98;100.00;95699.03;7416787;19;20376;-93
2023/09/12 20:53:44;;;;;;;18.67;15.10;;;;;;;16.79;100.00;95385.19;7414454;19;20420;-93
2023/09/12 20:59:25;;;;;;;17.70;14.93;;;;;;;17.95;100.00;95532.66;7430654;19;20415;-92
2023/09/12 21:02:35;;;;;;;17.87;15.87;;;;;;;16.82;100.00;95357.72;7423425;19;20395;-93
2023/09/12 21:05:33;;;;;;;18.87;16.30;;;;;;;17.96;100.00;95512.78;7419742;19;20396;-93
2023/09/12 21:08:24;;;;;;;18.03;15.97;;;;;;;17.82;100.00;95523.59;7420107;19;20369;-93
2023/09/12 21:11:26;;;;;;;17.77;15.90;;;;;;;19.05;100.00;95705.06;7421914;19;20396;-94
2023/09/12 21:14:21;;;;;;;19.07;17.07;;;;;;;18.88;100.00;95689.91;7426063;19;20435;-93
2023/09/12 21:17:01;;;;;;;18.70;15.87;;;;;;;18.93;100.00;95710.91;7419620;19;20397;-93
2023/09/12 21:19:32;;;;;;;19.40;16.80;;;;;;;17.62;100.00;95503.81;7420671;19;21021;-94
2023/09/12 21:22:16;;;;;;;17.67;15.83;;;;;;;17.63;100.00;95516.03;7423698;19;20416;-93
2023/09/12 21:24:57;;;;;;;18.53;16.63;;;;;;;17.84;100.00;95537.31;7417189;19;20742;-94
2023/09/12 21:27:39;;;;;;;20.50;16.10;;;;;;;17.58;100.00;95495.06;7420051;19;20388;-93
2023/09/12 21:30:29;;;;;;;17.47;14.30;;;;;;;17.54;100.00;95481.72;7419717;19;20436;-94
2023/09/12 21:33:26;;;;;;;17.30;15.70;;;;;;;18.73;100.00;95673.19;7416433;19;20421;-93
2023/09/12 21:36:10;;;;;;;18.77;16.40;;;;;;;17.46;100.00;95471.47;7418721;19;20392;-94
2023/09/12 21:38:50;;;;;;;21.87;16.90;;;;;;;16.47;100.00;95322.03;7418672;19;20400;-93
2023/09/12 21:41:34;;;;;;;17.43;15.43;;;;;;;18.97;100.00;95689.47;7418407;19;20372;-93
2023/09/12 21:44:27;;;;;;;17.50;15.90;;;;;;;17.43;100.00;95452.38;7416348;19;20421;-92
2023/09/12 21:47:22;;;;;;;18.37;16.83;;;;;;;16.95;100.00;95368.72;7416549;19;20389;-93
2023/09/12 21:50:11;;;;;;;17.30;15.87;;;;;;;16.60;100.00;95345.63;7416634;19;20398;-93
2023/09/12 21:52:57;;;;;;;16.27;14.87;;;;;;;19.26;100.00;95722.91;7419439;19;21120;-94
2023/09/12 21:55:40;;;;;;;16.93;15.43;;;;;;;18.04;100.00;95539.50;7412199;19;20377;-94
2023/09/12 21:58:37;;;;;;;17.30;15.57;;;;;;;19.01;100.00;95722.34;7414425;19;20364;-95
2023/09/12 22:01:20;;;;;;;24.50;15.57;;;;;;;18.78;100.00;95726.34;7417294;19;20388;-93
2023/09/12 22:04:15;;;;;;;16.03;14.33;;;;;;;17.60;100.00;95528.25;7413222;19;20459;-96
2023/09/12 22:06:59;;;;;;;19.33;15.53;;;;;;;18.91;100.00;95721.28;7418679;19;20389;-94
2023/09/12 22:10:54;;;;;;;17.83;15.83;;;;;;;16.66;100.00;95378.75;7431825;19;20377;-94
2023/09/12 22:13:44;;;;;;;20.47;15.83;;;;;;;18.52;100.00;95721.50;7416068;19;20424;-94
2023/09/12 22:19:47;;;;;;;18.17;16.30;;;;;;;18.15;100.00;95709.47;7418946;19;20431;-94
2023/09/12 22:22:42;;;;;;;18.63;15.33;;;;;;;16.09;100.00;95393.03;7418702;19;20376;-95
2023/09/12 22:25:59;;;;;;;17.43;15.63;;;;;;;15.51;100.00;95337.50;7414774;19;20439;-93
2023/09/12 22:28:54;;;;;;;20.07;17.43;;;;;;;16.96;100.00;95549.94;7417630;19;20388;-94
2023/09/12 22:31:45;;;;;;;24.20;17.07;;;;;;;15.86;100.00;95396.13;7415111;19;20393;-94
2023/09/12 22:35:05;;;;;;;24.30;17.03;;;;;;;15.98;100.00;95423.53;7420057;19;20441;-93
2023/09/12 22:38:04;;;;;;;18.33;15.97;;;;;;;15.67;100.00;95367.22;7413340;19;20487;-94
2023/09/12 22:40:57;;;;;;;19.73;16.10;;;;;;;16.62;100.00;95512.22;7418112;19;20401;-94
2023/09/12 22:43:47;;;;;;;18.20;16.30;;;;;;;15.95;100.00;95441.81;7415313;19;20420;-95
2023/09/12 22:46:41;;;;;;;17.40;14.57;;;;;;;16.86;100.00;95606.78;7418574;19;20377;-95
2023/09/12 22:49:16;;;;;;;18.73;15.67;;;;;;;16.50;100.00;95512.63;7418780;19;20375;-95
2023/09/12 22:52:06;;;;;;;17.20;15.43;;;;;;;17.90;100.00;95684.78;7421532;19;20377;-94
2023/09/12 22:55:06;;;;;;;18.37;16.73;;;;;;;17.76;100.00;95684.81;7418841;19;20444;-94
2023/09/12 22:58:36;;;;;;;;;;;;;;;;;;;;;
2023/09/12 23:01:44;;;;;;;21.20;16.50;;;;;;;16.98;100.00;95643.78;7417037;19;20397;-94
2023/09/12 23:04:29;;;;;;;19.50;16.83;;;;;;;16.28;100.00;95506.53;7412109;19;20433;-92
2023/09/12 23:07:34;;;;;;;19.10;16.90;;;;;;;15.55;100.00;95404.88;7417918;19;20376;-94
2023/09/12 23:10:23;;;;;;;18.63;16.90;;;;;;;16.16;100.00;95494.38;7414155;19;20380;-93
2023/09/12 23:13:12;;;;;;;23.50;18.10;;;;;;;15.67;100.00;95415.19;7411532;19;20487;-93
2023/09/12 23:16:11;;;;;;;20.50;18.70;;;;;;;16.02;100.00;95478.38;7411147;19;20392;-94
2023/09/12 23:18:52;;;;;;;17.73;16.00;;;;;;;17.25;100.00;95678.09;7413000;19;20379;-93
2023/09/12 23:22:00;;;;;;;18.80;17.10;;;;;;;15.89;100.00;95495.88;7412514;19;20373;-94
2023/09/12 23:25:34;;;;;;;18.90;17.10;;;;;;;17.24;100.00;95676.56;7413645;19;20383;-93
2023/09/12 23:28:15;;;;;;;17.73;15.90;;;;;;;14.61;100.00;95352.63;7410392;19;20389;-94
2023/09/12 23:30:54;;;;;;;22.97;18.70;;;;;;;15.44;100.00;95505.34;7408727;19;20428;-93
2023/09/12 23:33:45;;;;;;;20.83;18.70;;;;;;;14.78;100.00;95370.53;7413102;19;20420;-93
2023/09/12 23:36:35;;;;;;;18.23;16.60;;;;;;;16.96;100.00;95678.13;7413324;19;20918;-93
2023/09/12 23:39:30;;;;;;;19.57;17.87;;;;;;;17.13;100.00;95695.28;7412230;19;20376;-93
2023/09/12 23:42:06;;;;;;;18.40;16.70;;;;;;;15.81;100.00;95473.06;7408901;19;20404;-92
2023/09/12 23:44:52;;;;;;;18.63;16.73;;;;;;;15.51;100.00;95439.50;7407380;19;20380;-93
2023/09/12 23:48:00;;;;;;;20.00;18.13;;;;;;;15.86;100.00;95489.41;7411742;19;20381;-94
2023/09/12 23:51:00;;;;;;;18.57;16.67;;;;;;;14.99;100.00;95371.72;7412059;19;20434;-93
2023/09/12 23:53:55;;;;;;;19.70;16.90;;;;;;;16.76;100.00;95664.38;7412811;19;20442;-94
2023/09/12 23:56:44;;;;;;;18.77;16.83;;;;;;;15.34;100.00;95441.00;7411977;19;20400;-94
2023/09/12 23:59:22;;;;;;;17.00;15.40;;;;;;;16.20;100.00;95580.50;7412929;19;20915;-94
